sensor_id;sensor_type;location;lat;lon;timestamp;temperature;humidity
28548;DHT22;68292;49.600;8.746;2024-01-30T00:00:07;12.10;49.60
28548;DHT22;68292;49.600;8.746;2024-01-30T00:02:38;12.10;49.50
28548;DHT22;68292;49.600;8.746;2024-01-30T00:05:07;12.10;49.50
28548;DHT22;68292;49.600;8.746;2024-01-30T00:07:36;12.10;50.20
28548;DHT22;68292;49.600;8.746;2024-01-30T00:10:05;12.00;49.50
28548;DHT22;68292;49.600;8.746;2024-01-30T00:12:35;12.00;49.50
28548;DHT22;68292;49.600;8.746;2024-01-30T00:15:06;12.00;49.60
28548;DHT22;68292;49.600;8.746;2024-01-30T00:17:36;12.00;49.70
28548;DHT22;68292;49.600;8.746;2024-01-30T00:20:06;12.00;49.80
28548;DHT22;68292;49.600;8.746;2024-01-30T00:22:37;11.90;49.70
28548;DHT22;68292;49.600;8.746;2024-01-30T00:25:06;11.90;49.70
28548;DHT22;68292;49.600;8.746;2024-01-30T00:27:36;11.90;49.70
28548;DHT22;68292;49.600;8.746;2024-01-30T00:30:07;11.90;49.80
28548;DHT22;68292;49.600;8.746;2024-01-30T00:32:37;11.90;49.90
28548;DHT22;68292;49.600;8.746;2024-01-30T00:35:06;11.90;49.80
28548;DHT22;68292;49.600;8.746;2024-01-30T00:37:37;11.90;49.80
28548;DHT22;68292;49.600;8.746;2024-01-30T00:40:06;11.90;49.80
28548;DHT22;68292;49.600;8.746;2024-01-30T00:42:37;11.90;49.70
28548;DHT22;68292;49.600;8.746;2024-01-30T00:45:12;11.90;49.70
28548;DHT22;68292;49.600;8.746;2024-01-30T00:47:41;11.90;49.70
28548;DHT22;68292;49.600;8.746;2024-01-30T00:50:11;11.90;49.70
28548;DHT22;68292;49.600;8.746;2024-01-30T00:52:40;11.90;49.60
28548;DHT22;68292;49.600;8.746;2024-01-30T00:55:12;11.90;49.70
28548;DHT22;68292;49.600;8.746;2024-01-30T00:57:41;11.90;49.70
28548;DHT22;68292;49.600;8.746;2024-01-30T01:00:14;11.90;49.70
28548;DHT22;68292;49.600;8.746;2024-01-30T01:02:44;11.90;49.70
28548;DHT22;68292;49.600;8.746;2024-01-30T01:05:13;11.90;49.60
28548;DHT22;68292;49.600;8.746;2024-01-30T01:07:42;11.90;49.50
28548;DHT22;68292;49.600;8.746;2024-01-30T01:10:11;11.90;49.60
28548;DHT22;68292;49.600;8.746;2024-01-30T01:12:41;11.90;49.70
28548;DHT22;68292;49.600;8.746;2024-01-30T01:15:10;11.80;49.70
28548;DHT22;68292;49.600;8.746;2024-01-30T01:17:40;11.80;49.70
28548;DHT22;68292;49.600;8.746;2024-01-30T01:20:09;11.90;49.70
28548;DHT22;68292;49.600;8.746;2024-01-30T01:22:39;11.90;49.70
28548;DHT22;68292;49.600;8.746;2024-01-30T01:25:09;11.90;49.70
28548;DHT22;68292;49.600;8.746;2024-01-30T01:27:38;11.90;49.70
28548;DHT22;68292;49.600;8.746;2024-01-30T01:30:10;11.80;49.60
28548;DHT22;68292;49.600;8.746;2024-01-30T01:32:43;11.80;49.50
28548;DHT22;68292;49.600;8.746;2024-01-30T01:35:17;11.80;49.60
28548;DHT22;68292;49.600;8.746;2024-01-30T01:37:46;11.80;49.70
28548;DHT22;68292;49.600;8.746;2024-01-30T01:40:15;11.80;49.70
28548;DHT22;68292;49.600;8.746;2024-01-30T01:42:44;11.80;49.70
28548;DHT22;68292;49.600;8.746;2024-01-30T01:45:13;11.80;49.60
28548;DHT22;68292;49.600;8.746;2024-01-30T01:47:43;11.80;49.50
28548;DHT22;68292;49.600;8.746;2024-01-30T01:50:15;11.80;49.30
28548;DHT22;68292;49.600;8.746;2024-01-30T01:52:47;11.80;49.30
28548;DHT22;68292;49.600;8.746;2024-01-30T01:55:16;11.80;49.30
28548;DHT22;68292;49.600;8.746;2024-01-30T01:57:48;11.80;49.30
28548;DHT22;68292;49.600;8.746;2024-01-30T02:00:18;11.70;49.30
28548;DHT22;68292;49.600;8.746;2024-01-30T02:02:49;11.70;49.40
28548;DHT22;68292;49.600;8.746;2024-01-30T02:05:19;11.70;49.50
28548;DHT22;68292;49.600;8.746;2024-01-30T02:07:48;11.70;49.60
28548;DHT22;68292;49.600;8.746;2024-01-30T02:10:17;11.70;49.70
28548;DHT22;68292;49.600;8.746;2024-01-30T02:12:46;11.70;49.70
28548;DHT22;68292;49.600;8.746;2024-01-30T02:15:15;11.70;49.70
28548;DHT22;68292;49.600;8.746;2024-01-30T02:17:44;11.70;49.70
28548;DHT22;68292;49.600;8.746;2024-01-30T02:20:14;11.70;49.70
28548;DHT22;68292;49.600;8.746;2024-01-30T02:22:44;11.70;49.70
28548;DHT22;68292;49.600;8.746;2024-01-30T02:25:14;11.70;49.70
28548;DHT22;68292;49.600;8.746;2024-01-30T02:27:43;11.70;49.70
28548;DHT22;68292;49.600;8.746;2024-01-30T02:30:12;11.70;49.70
28548;DHT22;68292;49.600;8.746;2024-01-30T02:32:41;11.70;49.60
28548;DHT22;68292;49.600;8.746;2024-01-30T02:35:10;11.70;49.60
28548;DHT22;68292;49.600;8.746;2024-01-30T02:37:39;11.70;49.50
28548;DHT22;68292;49.600;8.746;2024-01-30T02:40:09;11.70;49.50
28548;DHT22;68292;49.600;8.746;2024-01-30T02:42:39;11.70;49.50
28548;DHT22;68292;49.600;8.746;2024-01-30T02:45:10;11.70;49.40
28548;DHT22;68292;49.600;8.746;2024-01-30T02:47:40;11.70;49.40
28548;DHT22;68292;49.600;8.746;2024-01-30T02:50:09;11.60;49.30
28548;DHT22;68292;49.600;8.746;2024-01-30T02:52:38;11.60;49.40
28548;DHT22;68292;49.600;8.746;2024-01-30T02:55:09;11.60;49.50
28548;DHT22;68292;49.600;8.746;2024-01-30T02:57:38;11.60;49.50
28548;DHT22;68292;49.600;8.746;2024-01-30T03:00:07;11.60;49.60
28548;DHT22;68292;49.600;8.746;2024-01-30T03:02:37;11.60;49.60
28548;DHT22;68292;49.600;8.746;2024-01-30T03:05:08;11.60;49.60
28548;DHT22;68292;49.600;8.746;2024-01-30T03:07:37;11.60;49.60
28548;DHT22;68292;49.600;8.746;2024-01-30T03:10:06;11.60;49.60
28548;DHT22;68292;49.600;8.746;2024-01-30T03:12:37;11.60;49.50
28548;DHT22;68292;49.600;8.746;2024-01-30T03:15:06;11.60;49.50
28548;DHT22;68292;49.600;8.746;2024-01-30T03:17:37;11.60;49.40
28548;DHT22;68292;49.600;8.746;2024-01-30T03:20:06;11.60;49.30
28548;DHT22;68292;49.600;8.746;2024-01-30T03:22:36;11.60;49.30
28548;DHT22;68292;49.600;8.746;2024-01-30T03:25:05;11.60;49.30
28548;DHT22;68292;49.600;8.746;2024-01-30T03:27:34;11.60;49.30
28548;DHT22;68292;49.600;8.746;2024-01-30T03:30:06;11.60;49.30
28548;DHT22;68292;49.600;8.746;2024-01-30T03:32:36;11.60;49.30
28548;DHT22;68292;49.600;8.746;2024-01-30T03:35:05;11.50;49.30
28548;DHT22;68292;49.600;8.746;2024-01-30T03:37:35;11.50;49.30
28548;DHT22;68292;49.600;8.746;2024-01-30T03:40:05;11.50;49.30
28548;DHT22;68292;49.600;8.746;2024-01-30T03:42:34;11.50;49.30
28548;DHT22;68292;49.600;8.746;2024-01-30T03:45:06;11.50;49.30
28548;DHT22;68292;49.600;8.746;2024-01-30T03:47:35;11.50;49.30
28548;DHT22;68292;49.600;8.746;2024-01-30T03:50:05;11.40;49.30
28548;DHT22;68292;49.600;8.746;2024-01-30T03:52:34;11.40;49.30
28548;DHT22;68292;49.600;8.746;2024-01-30T03:55:03;11.40;49.20
28548;DHT22;68292;49.600;8.746;2024-01-30T03:57:32;11.40;49.20
28548;DHT22;68292;49.600;8.746;2024-01-30T04:00:01;11.40;49.20
28548;DHT22;68292;49.600;8.746;2024-01-30T04:02:39;11.40;49.20
28548;DHT22;68292;49.600;8.746;2024-01-30T04:05:08;11.40;49.30
28548;DHT22;68292;49.600;8.746;2024-01-30T04:07:37;11.40;49.30
28548;DHT22;68292;49.600;8.746;2024-01-30T04:10:07;11.40;49.20
28548;DHT22;68292;49.600;8.746;2024-01-30T04:12:37;11.30;49.20
28548;DHT22;68292;49.600;8.746;2024-01-30T04:15:06;11.30;49.20
28548;DHT22;68292;49.600;8.746;2024-01-30T04:17:35;11.30;49.20
28548;DHT22;68292;49.600;8.746;2024-01-30T04:20:06;11.30;49.20
28548;DHT22;68292;49.600;8.746;2024-01-30T04:22:35;11.30;49.30
28548;DHT22;68292;49.600;8.746;2024-01-30T04:25:04;11.30;49.30
28548;DHT22;68292;49.600;8.746;2024-01-30T04:27:34;11.30;49.30
28548;DHT22;68292;49.600;8.746;2024-01-30T04:30:03;11.30;49.40
28548;DHT22;68292;49.600;8.746;2024-01-30T04:32:32;11.30;49.30
28548;DHT22;68292;49.600;8.746;2024-01-30T04:35:00;11.30;49.30
28548;DHT22;68292;49.600;8.746;2024-01-30T04:37:34;11.20;49.20
28548;DHT22;68292;49.600;8.746;2024-01-30T04:40:03;11.20;49.20
28548;DHT22;68292;49.600;8.746;2024-01-30T04:42:32;11.20;49.30
28548;DHT22;68292;49.600;8.746;2024-01-30T04:45:01;11.20;49.30
28548;DHT22;68292;49.600;8.746;2024-01-30T04:47:31;11.20;49.30
28548;DHT22;68292;49.600;8.746;2024-01-30T04:49:59;11.20;49.30
28548;DHT22;68292;49.600;8.746;2024-01-30T04:52:28;11.20;49.30
28548;DHT22;68292;49.600;8.746;2024-01-30T04:54:59;11.20;49.30
28548;DHT22;68292;49.600;8.746;2024-01-30T04:57:28;11.20;49.30
28548;DHT22;68292;49.600;8.746;2024-01-30T04:59:56;11.20;49.40
28548;DHT22;68292;49.600;8.746;2024-01-30T05:02:25;11.20;49.40
28548;DHT22;68292;49.600;8.746;2024-01-30T05:04:55;11.20;49.40
28548;DHT22;68292;49.600;8.746;2024-01-30T05:07:24;11.20;49.40
28548;DHT22;68292;49.600;8.746;2024-01-30T05:09:53;11.20;49.40
28548;DHT22;68292;49.600;8.746;2024-01-30T05:12:27;11.20;49.40
28548;DHT22;68292;49.600;8.746;2024-01-30T05:14:55;11.20;49.30
28548;DHT22;68292;49.600;8.746;2024-01-30T05:17:24;11.20;49.30
28548;DHT22;68292;49.600;8.746;2024-01-30T05:19:53;11.20;49.30
28548;DHT22;68292;49.600;8.746;2024-01-30T05:22:22;11.10;49.30
28548;DHT22;68292;49.600;8.746;2024-01-30T05:24:51;11.10;49.30
28548;DHT22;68292;49.600;8.746;2024-01-30T05:27:20;11.10;49.20
28548;DHT22;68292;49.600;8.746;2024-01-30T05:29:50;11.10;49.20
28548;DHT22;68292;49.600;8.746;2024-01-30T05:32:19;11.10;49.10
28548;DHT22;68292;49.600;8.746;2024-01-30T05:34:48;11.10;49.10
28548;DHT22;68292;49.600;8.746;2024-01-30T05:37:17;11.10;49.10
28548;DHT22;68292;49.600;8.746;2024-01-30T05:39:46;11.10;49.30
28548;DHT22;68292;49.600;8.746;2024-01-30T05:42:15;11.00;49.30
28548;DHT22;68292;49.600;8.746;2024-01-30T05:44:44;11.00;49.30
28548;DHT22;68292;49.600;8.746;2024-01-30T05:47:14;11.10;49.40
28548;DHT22;68292;49.600;8.746;2024-01-30T05:49:43;11.10;49.40
28548;DHT22;68292;49.600;8.746;2024-01-30T05:52:12;11.10;49.30
28548;DHT22;68292;49.600;8.746;2024-01-30T05:54:42;11.10;49.30
28548;DHT22;68292;49.600;8.746;2024-01-30T05:57:11;11.10;49.30
28548;DHT22;68292;49.600;8.746;2024-01-30T05:59:40;11.10;49.30
28548;DHT22;68292;49.600;8.746;2024-01-30T06:02:09;11.10;49.40
28548;DHT22;68292;49.600;8.746;2024-01-30T06:04:40;11.10;49.30
28548;DHT22;68292;49.600;8.746;2024-01-30T06:07:09;11.10;49.30
28548;DHT22;68292;49.600;8.746;2024-01-30T06:09:38;11.10;49.30
28548;DHT22;68292;49.600;8.746;2024-01-30T06:12:08;11.10;49.30
28548;DHT22;68292;49.600;8.746;2024-01-30T06:14:39;11.10;49.30
28548;DHT22;68292;49.600;8.746;2024-01-30T06:17:13;11.10;49.20
28548;DHT22;68292;49.600;8.746;2024-01-30T06:19:43;11.10;49.20
28548;DHT22;68292;49.600;8.746;2024-01-30T06:22:12;11.10;49.20
28548;DHT22;68292;49.600;8.746;2024-01-30T06:24:41;11.10;49.20
28548;DHT22;68292;49.600;8.746;2024-01-30T06:27:12;11.10;49.20
28548;DHT22;68292;49.600;8.746;2024-01-30T06:29:41;11.10;49.10
28548;DHT22;68292;49.600;8.746;2024-01-30T06:32:10;11.10;49.10
28548;DHT22;68292;49.600;8.746;2024-01-30T06:34:40;11.00;49.00
28548;DHT22;68292;49.600;8.746;2024-01-30T06:37:12;11.10;49.10
28548;DHT22;68292;49.600;8.746;2024-01-30T06:39:40;11.10;49.10
28548;DHT22;68292;49.600;8.746;2024-01-30T06:42:09;11.10;49.10
28548;DHT22;68292;49.600;8.746;2024-01-30T06:44:39;11.10;49.10
28548;DHT22;68292;49.600;8.746;2024-01-30T06:47:07;11.10;49.10
28548;DHT22;68292;49.600;8.746;2024-01-30T06:49:37;11.00;49.10
28548;DHT22;68292;49.600;8.746;2024-01-30T06:52:08;11.00;49.10
28548;DHT22;68292;49.600;8.746;2024-01-30T06:54:36;11.00;49.10
28548;DHT22;68292;49.600;8.746;2024-01-30T06:57:05;11.00;49.10
28548;DHT22;68292;49.600;8.746;2024-01-30T06:59:36;11.00;49.10
28548;DHT22;68292;49.600;8.746;2024-01-30T07:02:09;11.00;49.10
28548;DHT22;68292;49.600;8.746;2024-01-30T07:04:38;11.00;49.10
28548;DHT22;68292;49.600;8.746;2024-01-30T07:07:15;11.00;49.20
28548;DHT22;68292;49.600;8.746;2024-01-30T07:09:44;11.00;49.30
28548;DHT22;68292;49.600;8.746;2024-01-30T07:12:14;11.00;49.30
28548;DHT22;68292;49.600;8.746;2024-01-30T07:14:43;11.00;49.30
28548;DHT22;68292;49.600;8.746;2024-01-30T07:17:12;11.00;49.30
28548;DHT22;68292;49.600;8.746;2024-01-30T07:19:41;11.00;49.30
28548;DHT22;68292;49.600;8.746;2024-01-30T07:22:10;11.00;49.20
28548;DHT22;68292;49.600;8.746;2024-01-30T07:24:44;11.00;49.30
28548;DHT22;68292;49.600;8.746;2024-01-30T07:27:15;11.00;49.30
28548;DHT22;68292;49.600;8.746;2024-01-30T07:29:45;11.00;49.30
28548;DHT22;68292;49.600;8.746;2024-01-30T07:32:13;11.00;49.30
28548;DHT22;68292;49.600;8.746;2024-01-30T07:34:42;11.00;49.30
28548;DHT22;68292;49.600;8.746;2024-01-30T07:37:29;11.00;49.30
28548;DHT22;68292;49.600;8.746;2024-01-30T07:39:59;11.00;49.30
28548;DHT22;68292;49.600;8.746;2024-01-30T07:42:28;11.00;49.20
28548;DHT22;68292;49.600;8.746;2024-01-30T07:44:57;11.10;49.30
28548;DHT22;68292;49.600;8.746;2024-01-30T07:47:25;11.10;49.30
28548;DHT22;68292;49.600;8.746;2024-01-30T07:49:54;11.00;49.20
28548;DHT22;68292;49.600;8.746;2024-01-30T07:52:23;11.10;49.40
28548;DHT22;68292;49.600;8.746;2024-01-30T07:54:55;11.10;49.40
28548;DHT22;68292;49.600;8.746;2024-01-30T07:57:25;11.10;49.40
28548;DHT22;68292;49.600;8.746;2024-01-30T07:59:54;11.10;49.40
28548;DHT22;68292;49.600;8.746;2024-01-30T08:02:24;11.10;49.40
28548;DHT22;68292;49.600;8.746;2024-01-30T08:04:53;11.10;49.40
28548;DHT22;68292;49.600;8.746;2024-01-30T08:07:22;11.10;49.50
28548;DHT22;68292;49.600;8.746;2024-01-30T08:09:50;11.10;49.50
28548;DHT22;68292;49.600;8.746;2024-01-30T08:12:19;11.20;49.70
28548;DHT22;68292;49.600;8.746;2024-01-30T08:14:49;11.20;49.60
28548;DHT22;68292;49.600;8.746;2024-01-30T08:17:18;11.20;49.70
28548;DHT22;68292;49.600;8.746;2024-01-30T08:19:47;11.20;49.80
28548;DHT22;68292;49.600;8.746;2024-01-30T08:22:15;11.20;49.90
28548;DHT22;68292;49.600;8.746;2024-01-30T08:24:44;11.20;49.90
28548;DHT22;68292;49.600;8.746;2024-01-30T08:27:13;11.30;50.00
28548;DHT22;68292;49.600;8.746;2024-01-30T08:29:42;11.30;50.00
28548;DHT22;68292;49.600;8.746;2024-01-30T08:32:12;11.30;50.10
28548;DHT22;68292;49.600;8.746;2024-01-30T08:34:41;11.30;50.10
28548;DHT22;68292;49.600;8.746;2024-01-30T08:37:10;11.40;50.20
28548;DHT22;68292;49.600;8.746;2024-01-30T08:39:38;11.40;50.20
28548;DHT22;68292;49.600;8.746;2024-01-30T08:42:07;11.50;50.20
28548;DHT22;68292;49.600;8.746;2024-01-30T08:44:36;11.50;50.20
28548;DHT22;68292;49.600;8.746;2024-01-30T08:47:05;11.50;50.30
28548;DHT22;68292;49.600;8.746;2024-01-30T08:49:36;11.60;50.40
28548;DHT22;68292;49.600;8.746;2024-01-30T08:52:04;11.60;50.50
28548;DHT22;68292;49.600;8.746;2024-01-30T08:54:34;11.60;50.50
28548;DHT22;68292;49.600;8.746;2024-01-30T08:57:03;11.70;50.60
28548;DHT22;68292;49.600;8.746;2024-01-30T08:59:32;11.70;50.60
28548;DHT22;68292;49.600;8.746;2024-01-30T09:02:01;11.80;50.60
28548;DHT22;68292;49.600;8.746;2024-01-30T09:04:40;11.80;50.60
28548;DHT22;68292;49.600;8.746;2024-01-30T09:07:09;11.90;50.60
28548;DHT22;68292;49.600;8.746;2024-01-30T09:09:38;12.00;50.60
28548;DHT22;68292;49.600;8.746;2024-01-30T09:12:09;12.00;50.60
28548;DHT22;68292;49.600;8.746;2024-01-30T09:14:39;12.00;50.70
28548;DHT22;68292;49.600;8.746;2024-01-30T09:17:09;12.10;50.80
28548;DHT22;68292;49.600;8.746;2024-01-30T09:19:38;12.10;50.80
28548;DHT22;68292;49.600;8.746;2024-01-30T09:22:09;12.10;50.80
28548;DHT22;68292;49.600;8.746;2024-01-30T09:24:38;12.20;50.90
28548;DHT22;68292;49.600;8.746;2024-01-30T09:27:08;12.20;50.90
28548;DHT22;68292;49.600;8.746;2024-01-30T09:29:37;12.20;51.00
28548;DHT22;68292;49.600;8.746;2024-01-30T09:32:07;12.30;51.10
28548;DHT22;68292;49.600;8.746;2024-01-30T09:34:37;12.30;51.20
28548;DHT22;68292;49.600;8.746;2024-01-30T09:37:10;12.30;51.20
28548;DHT22;68292;49.600;8.746;2024-01-30T09:39:39;12.30;51.20
28548;DHT22;68292;49.600;8.746;2024-01-30T09:42:14;12.40;51.20
28548;DHT22;68292;49.600;8.746;2024-01-30T09:44:47;12.40;51.50
28548;DHT22;68292;49.600;8.746;2024-01-30T09:47:19;12.40;51.40
28548;DHT22;68292;49.600;8.746;2024-01-30T09:49:48;12.50;51.60
28548;DHT22;68292;49.600;8.746;2024-01-30T09:52:19;12.50;51.80
28548;DHT22;68292;49.600;8.746;2024-01-30T09:54:49;12.50;52.10
28548;DHT22;68292;49.600;8.746;2024-01-30T09:57:19;12.50;52.20
28548;DHT22;68292;49.600;8.746;2024-01-30T09:59:49;12.60;52.00
28548;DHT22;68292;49.600;8.746;2024-01-30T10:02:19;12.60;52.00
28548;DHT22;68292;49.600;8.746;2024-01-30T10:04:48;12.60;52.00
28548;DHT22;68292;49.600;8.746;2024-01-30T10:07:19;12.70;52.00
28548;DHT22;68292;49.600;8.746;2024-01-30T10:09:48;12.80;52.20
28548;DHT22;68292;49.600;8.746;2024-01-30T10:12:17;12.80;52.10
28548;DHT22;68292;49.600;8.746;2024-01-30T10:14:46;12.80;52.40
28548;DHT22;68292;49.600;8.746;2024-01-30T10:17:15;12.90;52.60
28548;DHT22;68292;49.600;8.746;2024-01-30T10:19:58;12.90;52.60
28548;DHT22;68292;49.600;8.746;2024-01-30T10:22:30;12.90;52.60
28548;DHT22;68292;49.600;8.746;2024-01-30T10:25:00;13.00;53.50
28548;DHT22;68292;49.600;8.746;2024-01-30T10:27:32;13.00;53.00
28548;DHT22;68292;49.600;8.746;2024-01-30T10:30:01;13.10;53.00
28548;DHT22;68292;49.600;8.746;2024-01-30T10:32:31;13.10;53.00
28548;DHT22;68292;49.600;8.746;2024-01-30T10:35:00;13.10;53.10
28548;DHT22;68292;49.600;8.746;2024-01-30T10:37:31;13.20;53.30
28548;DHT22;68292;49.600;8.746;2024-01-30T10:40:03;13.20;54.30
28548;DHT22;68292;49.600;8.746;2024-01-30T10:42:36;13.30;53.60
28548;DHT22;68292;49.600;8.746;2024-01-30T10:45:07;13.40;53.70
28548;DHT22;68292;49.600;8.746;2024-01-30T10:47:37;13.40;53.70
28548;DHT22;68292;49.600;8.746;2024-01-30T10:50:07;13.50;53.60
28548;DHT22;68292;49.600;8.746;2024-01-30T10:52:39;13.50;53.90
28548;DHT22;68292;49.600;8.746;2024-01-30T10:55:10;13.50;54.00
28548;DHT22;68292;49.600;8.746;2024-01-30T10:57:39;13.60;54.00
28548;DHT22;68292;49.600;8.746;2024-01-30T11:00:10;13.60;54.10
28548;DHT22;68292;49.600;8.746;2024-01-30T11:02:41;13.70;54.20
28548;DHT22;68292;49.600;8.746;2024-01-30T11:05:12;13.70;54.30
28548;DHT22;68292;49.600;8.746;2024-01-30T11:07:44;13.80;54.20
28548;DHT22;68292;49.600;8.746;2024-01-30T11:10:13;13.80;54.10
28548;DHT22;68292;49.600;8.746;2024-01-30T11:12:43;13.90;54.00
28548;DHT22;68292;49.600;8.746;2024-01-30T11:15:14;13.90;53.90
28548;DHT22;68292;49.600;8.746;2024-01-30T11:17:49;13.90;53.90
28548;DHT22;68292;49.600;8.746;2024-01-30T11:20:21;14.00;53.90
28548;DHT22;68292;49.600;8.746;2024-01-30T11:22:53;14.00;53.70
28548;DHT22;68292;49.600;8.746;2024-01-30T11:25:24;14.10;53.70
28548;DHT22;68292;49.600;8.746;2024-01-30T11:27:55;14.10;53.60
28548;DHT22;68292;49.600;8.746;2024-01-30T11:30:25;14.20;53.50
28548;DHT22;68292;49.600;8.746;2024-01-30T11:33:01;14.20;53.30
28548;DHT22;68292;49.600;8.746;2024-01-30T11:35:34;14.30;53.40
28548;DHT22;68292;49.600;8.746;2024-01-30T11:38:06;14.30;53.10
28548;DHT22;68292;49.600;8.746;2024-01-30T11:40:37;14.30;53.20
28548;DHT22;68292;49.600;8.746;2024-01-30T11:43:07;14.40;53.10
28548;DHT22;68292;49.600;8.746;2024-01-30T11:45:37;14.40;53.00
28548;DHT22;68292;49.600;8.746;2024-01-30T11:48:07;14.40;52.80
28548;DHT22;68292;49.600;8.746;2024-01-30T11:50:39;14.50;52.90
28548;DHT22;68292;49.600;8.746;2024-01-30T11:53:09;14.50;52.70
28548;DHT22;68292;49.600;8.746;2024-01-30T11:55:38;14.50;52.70
28548;DHT22;68292;49.600;8.746;2024-01-30T11:58:07;14.60;52.70
28548;DHT22;68292;49.600;8.746;2024-01-30T12:00:36;14.60;52.60
28548;DHT22;68292;49.600;8.746;2024-01-30T12:03:05;14.70;52.70
28548;DHT22;68292;49.600;8.746;2024-01-30T12:05:35;14.70;52.60
28548;DHT22;68292;49.600;8.746;2024-01-30T12:08:16;14.70;52.40
28548;DHT22;68292;49.600;8.746;2024-01-30T12:10:44;14.70;52.40
28548;DHT22;68292;49.600;8.746;2024-01-30T12:13:14;14.80;52.40
28548;DHT22;68292;49.600;8.746;2024-01-30T12:15:43;14.80;52.20
28548;DHT22;68292;49.600;8.746;2024-01-30T12:18:12;14.80;52.20
28548;DHT22;68292;49.600;8.746;2024-01-30T12:20:41;14.80;52.10
28548;DHT22;68292;49.600;8.746;2024-01-30T12:23:12;14.90;52.10
28548;DHT22;68292;49.600;8.746;2024-01-30T12:25:42;14.90;52.10
28548;DHT22;68292;49.600;8.746;2024-01-30T12:28:11;14.90;52.10
28548;DHT22;68292;49.600;8.746;2024-01-30T12:30:40;14.90;52.00
28548;DHT22;68292;49.600;8.746;2024-01-30T12:33:09;14.90;52.00
28548;DHT22;68292;49.600;8.746;2024-01-30T12:35:48;15.00;52.10
28548;DHT22;68292;49.600;8.746;2024-01-30T12:38:29;15.00;52.00
28548;DHT22;68292;49.600;8.746;2024-01-30T12:40:59;15.00;52.70
28548;DHT22;68292;49.600;8.746;2024-01-30T12:43:29;15.10;52.10
28548;DHT22;68292;49.600;8.746;2024-01-30T12:46:05;15.10;52.00
28548;DHT22;68292;49.600;8.746;2024-01-30T12:48:35;15.10;52.00
28548;DHT22;68292;49.600;8.746;2024-01-30T12:51:04;15.10;52.00
28548;DHT22;68292;49.600;8.746;2024-01-30T12:53:33;15.10;52.00
28548;DHT22;68292;49.600;8.746;2024-01-30T12:56:03;15.10;52.00
28548;DHT22;68292;49.600;8.746;2024-01-30T12:58:32;15.10;52.00
28548;DHT22;68292;49.600;8.746;2024-01-30T13:01:01;15.20;52.00
28548;DHT22;68292;49.600;8.746;2024-01-30T13:03:30;15.20;52.00
28548;DHT22;68292;49.600;8.746;2024-01-30T13:06:00;15.20;52.00
28548;DHT22;68292;49.600;8.746;2024-01-30T13:08:29;15.20;52.00
28548;DHT22;68292;49.600;8.746;2024-01-30T13:10:58;15.20;52.00
28548;DHT22;68292;49.600;8.746;2024-01-30T13:13:28;15.20;52.00
28548;DHT22;68292;49.600;8.746;2024-01-30T13:15:57;15.20;52.00
28548;DHT22;68292;49.600;8.746;2024-01-30T13:18:26;15.30;52.00
28548;DHT22;68292;49.600;8.746;2024-01-30T13:20:55;15.30;52.00
28548;DHT22;68292;49.600;8.746;2024-01-30T13:23:24;15.30;52.00
28548;DHT22;68292;49.600;8.746;2024-01-30T13:25:53;15.30;52.00
28548;DHT22;68292;49.600;8.746;2024-01-30T13:28:24;15.30;52.00
28548;DHT22;68292;49.600;8.746;2024-01-30T13:30:55;15.30;52.00
28548;DHT22;68292;49.600;8.746;2024-01-30T13:33:26;15.30;52.00
28548;DHT22;68292;49.600;8.746;2024-01-30T13:35:55;15.40;52.10
28548;DHT22;68292;49.600;8.746;2024-01-30T13:38:24;15.30;52.00
28548;DHT22;68292;49.600;8.746;2024-01-30T13:40:52;15.30;52.10
28548;DHT22;68292;49.600;8.746;2024-01-30T13:43:21;15.30;52.10
28548;DHT22;68292;49.600;8.746;2024-01-30T13:45:50;15.40;52.10
28548;DHT22;68292;49.600;8.746;2024-01-30T13:48:21;15.40;52.10
28548;DHT22;68292;49.600;8.746;2024-01-30T13:50:50;15.40;52.10
28548;DHT22;68292;49.600;8.746;2024-01-30T13:53:21;15.40;52.10
28548;DHT22;68292;49.600;8.746;2024-01-30T13:55:50;15.40;52.20
28548;DHT22;68292;49.600;8.746;2024-01-30T13:58:21;15.40;52.20
28548;DHT22;68292;49.600;8.746;2024-01-30T14:00:54;15.40;52.20
28548;DHT22;68292;49.600;8.746;2024-01-30T14:03:25;15.40;52.20
28548;DHT22;68292;49.600;8.746;2024-01-30T14:05:55;15.40;52.30
28548;DHT22;68292;49.600;8.746;2024-01-30T14:08:24;15.40;52.20
28548;DHT22;68292;49.600;8.746;2024-01-30T14:10:55;15.40;52.20
28548;DHT22;68292;49.600;8.746;2024-01-30T14:13:24;15.40;52.20
28548;DHT22;68292;49.600;8.746;2024-01-30T14:15:53;15.40;52.30
28548;DHT22;68292;49.600;8.746;2024-01-30T14:18:22;15.40;52.30
28548;DHT22;68292;49.600;8.746;2024-01-30T14:20:54;15.50;52.30
28548;DHT22;68292;49.600;8.746;2024-01-30T14:23:23;15.50;52.40
28548;DHT22;68292;49.600;8.746;2024-01-30T14:25:52;15.50;52.30
28548;DHT22;68292;49.600;8.746;2024-01-30T14:28:21;15.50;52.30
28548;DHT22;68292;49.600;8.746;2024-01-30T14:30:50;15.50;52.30
28548;DHT22;68292;49.600;8.746;2024-01-30T14:33:18;15.50;52.40
28548;DHT22;68292;49.600;8.746;2024-01-30T14:35:47;15.50;52.50
28548;DHT22;68292;49.600;8.746;2024-01-30T14:38:17;15.50;52.50
28548;DHT22;68292;49.600;8.746;2024-01-30T14:40:46;15.50;52.50
28548;DHT22;68292;49.600;8.746;2024-01-30T14:43:15;15.50;52.50
28548;DHT22;68292;49.600;8.746;2024-01-30T14:45:44;15.50;52.50
28548;DHT22;68292;49.600;8.746;2024-01-30T14:48:16;15.50;52.60
28548;DHT22;68292;49.600;8.746;2024-01-30T14:50:45;15.60;52.80
28548;DHT22;68292;49.600;8.746;2024-01-30T14:53:14;15.50;52.70
28548;DHT22;68292;49.600;8.746;2024-01-30T14:55:44;15.50;52.70
28548;DHT22;68292;49.600;8.746;2024-01-30T14:58:13;15.60;52.70
28548;DHT22;68292;49.600;8.746;2024-01-30T15:00:42;15.60;52.80
28548;DHT22;68292;49.600;8.746;2024-01-30T15:03:11;15.50;52.70
28548;DHT22;68292;49.600;8.746;2024-01-30T15:05:40;15.50;52.80
28548;DHT22;68292;49.600;8.746;2024-01-30T15:08:08;15.50;52.80
28548;DHT22;68292;49.600;8.746;2024-01-30T15:10:37;15.60;52.90
28548;DHT22;68292;49.600;8.746;2024-01-30T15:13:08;15.60;52.90
28548;DHT22;68292;49.600;8.746;2024-01-30T15:15:38;15.50;52.90
28548;DHT22;68292;49.600;8.746;2024-01-30T15:18:08;15.50;52.90
28548;DHT22;68292;49.600;8.746;2024-01-30T15:20:38;15.50;52.90
28548;DHT22;68292;49.600;8.746;2024-01-30T15:23:08;15.50;52.90
28548;DHT22;68292;49.600;8.746;2024-01-30T15:25:36;15.50;52.90
28548;DHT22;68292;49.600;8.746;2024-01-30T15:28:06;15.60;52.90
28548;DHT22;68292;49.600;8.746;2024-01-30T15:30:36;15.50;52.90
28548;DHT22;68292;49.600;8.746;2024-01-30T15:33:05;15.50;52.80
28548;DHT22;68292;49.600;8.746;2024-01-30T15:35:34;15.60;52.90
28548;DHT22;68292;49.600;8.746;2024-01-30T15:38:03;15.50;52.90
28548;DHT22;68292;49.600;8.746;2024-01-30T15:40:35;15.60;52.90
28548;DHT22;68292;49.600;8.746;2024-01-30T15:43:08;15.60;53.00
28548;DHT22;68292;49.600;8.746;2024-01-30T15:45:37;15.50;53.00